sensor_id;sensor_type;location;lat;lon;timestamp;temperature;humidity
71649;SHT31;70112;45.624;11.760;2024-02-23T00:00:23;11.10;80.94
71649;SHT31;70112;45.624;11.760;2024-02-23T00:02:52;11.08;80.97
71649;SHT31;70112;45.624;11.760;2024-02-23T00:05:59;11.07;81.00
71649;SHT31;70112;45.624;11.760;2024-02-23T00:08:26;11.06;80.96
71649;SHT31;70112;45.624;11.760;2024-02-23T00:10:55;11.04;80.91
71649;SHT31;70112;45.624;11.760;2024-02-23T00:14:03;11.00;80.98
71649;SHT31;70112;45.624;11.760;2024-02-23T00:16:42;11.00;80.96
71649;SHT31;70112;45.624;11.760;2024-02-23T00:19:08;10.97;80.94
71649;SHT31;70112;45.624;11.760;2024-02-23T00:21:39;10.95;81.00
71649;SHT31;70112;45.624;11.760;2024-02-23T00:24:16;10.94;81.00
71649;SHT31;70112;45.624;11.760;2024-02-23T00:26:54;10.92;81.03
71649;SHT31;70112;45.624;11.760;2024-02-23T00:29:22;10.92;81.09
71649;SHT31;70112;45.624;11.760;2024-02-23T00:31:51;10.93;81.09
71649;SHT31;70112;45.624;11.760;2024-02-23T00:34:17;10.94;81.06
71649;SHT31;70112;45.624;11.760;2024-02-23T00:36:43;10.93;81.07
71649;SHT31;70112;45.624;11.760;2024-02-23T00:39:11;10.93;81.08
71649;SHT31;70112;45.624;11.760;2024-02-23T00:41:37;10.90;81.02
71649;SHT31;70112;45.624;11.760;2024-02-23T00:44:03;10.87;81.09
71649;SHT31;70112;45.624;11.760;2024-02-23T00:46:37;10.86;81.10
71649;SHT31;70112;45.624;11.760;2024-02-23T00:49:03;10.86;81.10
71649;SHT31;70112;45.624;11.760;2024-02-23T00:51:30;10.85;81.08
71649;SHT31;70112;45.624;11.760;2024-02-23T00:53:56;10.83;81.10
71649;SHT31;70112;45.624;11.760;2024-02-23T00:56:22;10.81;81.10
71649;SHT31;70112;45.624;11.760;2024-02-23T00:58:48;10.78;81.15
71649;SHT31;70112;45.624;11.760;2024-02-23T01:01:50;10.75;81.20
71649;SHT31;70112;45.624;11.760;2024-02-23T01:04:15;10.74;81.20
71649;SHT31;70112;45.624;11.760;2024-02-23T01:06:44;10.74;81.25
71649;SHT31;70112;45.624;11.760;2024-02-23T01:09:09;10.73;81.27
71649;SHT31;70112;45.624;11.760;2024-02-23T01:11:35;10.73;81.30
71649;SHT31;70112;45.624;11.760;2024-02-23T01:14:01;10.71;81.29
71649;SHT31;70112;45.624;11.760;2024-02-23T01:16:26;10.71;81.32
71649;SHT31;70112;45.624;11.760;2024-02-23T01:18:52;10.71;81.37
71649;SHT31;70112;45.624;11.760;2024-02-23T01:21:18;10.72;81.40
71649;SHT31;70112;45.624;11.760;2024-02-23T01:23:47;10.73;81.40
71649;SHT31;70112;45.624;11.760;2024-02-23T01:26:15;10.73;81.40
71649;SHT31;70112;45.624;11.760;2024-02-23T01:29:02;10.73;81.40
71649;SHT31;70112;45.624;11.760;2024-02-23T01:31:32;10.73;81.40
71649;SHT31;70112;45.624;11.760;2024-02-23T01:33:57;10.73;81.42
71649;SHT31;70112;45.624;11.760;2024-02-23T01:36:23;10.73;81.43
71649;SHT31;70112;45.624;11.760;2024-02-23T01:38:51;10.71;81.40
71649;SHT31;70112;45.624;11.760;2024-02-23T01:41:37;10.70;81.50
71649;SHT31;70112;45.624;11.760;2024-02-23T01:44:06;10.69;81.48
71649;SHT31;70112;45.624;11.760;2024-02-23T01:46:32;10.67;81.50
71649;SHT31;70112;45.624;11.760;2024-02-23T01:48:58;10.67;81.52
71649;SHT31;70112;45.624;11.760;2024-02-23T01:51:33;10.64;81.50
71649;SHT31;70112;45.624;11.760;2024-02-23T01:53:59;10.61;81.54
71649;SHT31;70112;45.624;11.760;2024-02-23T01:56:25;10.59;81.56
71649;SHT31;70112;45.624;11.760;2024-02-23T01:58:52;10.56;81.63
71649;SHT31;70112;45.624;11.760;2024-02-23T02:01:20;10.53;81.70
71649;SHT31;70112;45.624;11.760;2024-02-23T02:06:56;10.50;81.80
71649;SHT31;70112;45.624;11.760;2024-02-23T02:09:22;10.47;81.85
71649;SHT31;70112;45.624;11.760;2024-02-23T02:11:53;10.47;81.91
71649;SHT31;70112;45.624;11.760;2024-02-23T02:14:19;10.44;81.94
71649;SHT31;70112;45.624;11.760;2024-02-23T02:19:23;10.45;82.01
71649;SHT31;70112;45.624;11.760;2024-02-23T02:21:51;10.44;82.08
71649;SHT31;70112;45.624;11.760;2024-02-23T02:24:17;10.43;82.09
71649;SHT31;70112;45.624;11.760;2024-02-23T02:26:43;10.43;82.13
71649;SHT31;70112;45.624;11.760;2024-02-23T02:29:10;10.43;82.16
71649;SHT31;70112;45.624;11.760;2024-02-23T02:32:00;10.42;82.18
71649;SHT31;70112;45.624;11.760;2024-02-23T02:34:25;10.44;82.25
71649;SHT31;70112;45.624;11.760;2024-02-23T02:39:51;10.43;82.25
71649;SHT31;70112;45.624;11.760;2024-02-23T02:42:38;10.44;82.27
71649;SHT31;70112;45.624;11.760;2024-02-23T02:47:47;10.44;82.32
71649;SHT31;70112;45.624;11.760;2024-02-23T02:50:13;10.44;82.35
71649;SHT31;70112;45.624;11.760;2024-02-23T02:52:42;10.46;82.31
71649;SHT31;70112;45.624;11.760;2024-02-23T02:55:13;10.44;82.37
71649;SHT31;70112;45.624;11.760;2024-02-23T02:57:41;10.46;82.39
71649;SHT31;70112;45.624;11.760;2024-02-23T03:00:11;10.44;82.38
71649;SHT31;70112;45.624;11.760;2024-02-23T03:02:43;10.44;82.44
71649;SHT31;70112;45.624;11.760;2024-02-23T03:05:09;10.45;82.44
71649;SHT31;70112;45.624;11.760;2024-02-23T03:07:55;10.45;82.44
71649;SHT31;70112;45.624;11.760;2024-02-23T03:10:20;10.46;82.48
71649;SHT31;70112;45.624;11.760;2024-02-23T03:15:28;10.45;82.49
71649;SHT31;70112;45.624;11.760;2024-02-23T03:17:59;10.45;82.50
71649;SHT31;70112;45.624;11.760;2024-02-23T03:20:27;10.45;82.51
71649;SHT31;70112;45.624;11.760;2024-02-23T03:23:03;10.46;82.51
71649;SHT31;70112;45.624;11.760;2024-02-23T03:25:35;10.47;82.54
71649;SHT31;70112;45.624;11.760;2024-02-23T03:28:03;10.50;82.53
71649;SHT31;70112;45.624;11.760;2024-02-23T03:30:59;10.50;82.51
71649;SHT31;70112;45.624;11.760;2024-02-23T03:33:37;10.51;82.50
71649;SHT31;70112;45.624;11.760;2024-02-23T03:36:06;10.51;82.51
71649;SHT31;70112;45.624;11.760;2024-02-23T03:38:34;10.53;82.50
71649;SHT31;70112;45.624;11.760;2024-02-23T03:41:10;10.56;82.50
71649;SHT31;70112;45.624;11.760;2024-02-23T03:43:36;10.56;82.50
71649;SHT31;70112;45.624;11.760;2024-02-23T03:46:03;10.59;82.50
71649;SHT31;70112;45.624;11.760;2024-02-23T03:49:17;10.60;82.40
71649;SHT31;70112;45.624;11.760;2024-02-23T03:55:01;10.59;82.40
71649;SHT31;70112;45.624;11.760;2024-02-23T03:57:29;10.58;82.39
71649;SHT31;70112;45.624;11.760;2024-02-23T03:59:55;10.57;82.40
71649;SHT31;70112;45.624;11.760;2024-02-23T04:02:22;10.58;82.43
71649;SHT31;70112;45.624;11.760;2024-02-23T04:04:48;10.59;82.38
71649;SHT31;70112;45.624;11.760;2024-02-23T04:07:16;10.57;82.35
71649;SHT31;70112;45.624;11.760;2024-02-23T04:13:31;10.58;82.38
71649;SHT31;70112;45.624;11.760;2024-02-23T04:16:03;10.58;82.37
71649;SHT31;70112;45.624;11.760;2024-02-23T04:18:29;10.57;82.34
71649;SHT31;70112;45.624;11.760;2024-02-23T04:20:57;10.56;82.39
71649;SHT31;70112;45.624;11.760;2024-02-23T04:23:25;10.56;82.40
71649;SHT31;70112;45.624;11.760;2024-02-23T04:25:51;10.55;82.40
71649;SHT31;70112;45.624;11.760;2024-02-23T04:28:17;10.54;82.48
71649;SHT31;70112;45.624;11.760;2024-02-23T04:30:53;10.56;82.50
71649;SHT31;70112;45.624;11.760;2024-02-23T04:33:19;10.56;82.52
71649;SHT31;70112;45.624;11.760;2024-02-23T04:38:54;10.59;82.60
71649;SHT31;70112;45.624;11.760;2024-02-23T04:41:20;10.61;82.60
71649;SHT31;70112;45.624;11.760;2024-02-23T04:43:48;10.62;82.58
71649;SHT31;70112;45.624;11.760;2024-02-23T04:46:31;10.63;82.61
71649;SHT31;70112;45.624;11.760;2024-02-23T04:48:59;10.65;82.63
71649;SHT31;70112;45.624;11.760;2024-02-23T04:52:05;10.66;82.70
71649;SHT31;70112;45.624;11.760;2024-02-23T04:54:51;10.67;82.68
71649;SHT31;70112;45.624;11.760;2024-02-23T04:57:38;10.70;82.69
71649;SHT31;70112;45.624;11.760;2024-02-23T05:00:27;10.71;82.70
71649;SHT31;70112;45.624;11.760;2024-02-23T05:03:00;10.73;82.70
71649;SHT31;70112;45.624;11.760;2024-02-23T05:05:31;10.74;82.69
71649;SHT31;70112;45.624;11.760;2024-02-23T05:08:05;10.74;82.72
71649;SHT31;70112;45.624;11.760;2024-02-23T05:10:34;10.75;82.72
71649;SHT31;70112;45.624;11.760;2024-02-23T05:13:11;10.77;82.72
71649;SHT31;70112;45.624;11.760;2024-02-23T05:15:44;10.79;82.74
71649;SHT31;70112;45.624;11.760;2024-02-23T05:18:40;10.80;82.74
71649;SHT31;70112;45.624;11.760;2024-02-23T05:21:29;10.79;82.70
71649;SHT31;70112;45.624;11.760;2024-02-23T05:24:05;10.81;82.72
71649;SHT31;70112;45.624;11.760;2024-02-23T05:26:31;10.81;82.72
71649;SHT31;70112;45.624;11.760;2024-02-23T05:28:59;10.81;82.79
71649;SHT31;70112;45.624;11.760;2024-02-23T05:31:43;10.82;82.78
71649;SHT31;70112;45.624;11.760;2024-02-23T05:34:14;10.84;82.77
71649;SHT31;70112;45.624;11.760;2024-02-23T05:36:39;10.85;82.80
71649;SHT31;70112;45.624;11.760;2024-02-23T05:39:05;10.87;82.80
71649;SHT31;70112;45.624;11.760;2024-02-23T05:41:38;10.87;82.80
71649;SHT31;70112;45.624;11.760;2024-02-23T05:44:04;10.90;82.78
71649;SHT31;70112;45.624;11.760;2024-02-23T05:46:42;10.90;82.79
71649;SHT31;70112;45.624;11.760;2024-02-23T05:49:08;10.91;82.80
71649;SHT31;70112;45.624;11.760;2024-02-23T05:51:37;10.93;82.77
71649;SHT31;70112;45.624;11.760;2024-02-23T05:54:11;10.93;82.75
71649;SHT31;70112;45.624;11.760;2024-02-23T05:56:40;10.93;82.79
71649;SHT31;70112;45.624;11.760;2024-02-23T05:59:06;10.93;82.80
71649;SHT31;70112;45.624;11.760;2024-02-23T06:01:34;10.94;82.79
71649;SHT31;70112;45.624;11.760;2024-02-23T06:04:03;10.95;82.80
71649;SHT31;70112;45.624;11.760;2024-02-23T06:06:40;10.95;82.80
71649;SHT31;70112;45.624;11.760;2024-02-23T06:12:10;10.96;82.80
71649;SHT31;70112;45.624;11.760;2024-02-23T06:14:39;10.95;82.79
71649;SHT31;70112;45.624;11.760;2024-02-23T06:17:05;10.95;82.80
71649;SHT31;70112;45.624;11.760;2024-02-23T06:19:33;10.96;82.80
71649;SHT31;70112;45.624;11.760;2024-02-23T06:22:01;10.97;82.79
71649;SHT31;70112;45.624;11.760;2024-02-23T06:24:41;10.97;82.80
71649;SHT31;70112;45.624;11.760;2024-02-23T06:27:10;10.97;82.81
71649;SHT31;70112;45.624;11.760;2024-02-23T06:29:38;10.98;82.80
71649;SHT31;70112;45.624;11.760;2024-02-23T06:32:04;10.98;82.77
71649;SHT31;70112;45.624;11.760;2024-02-23T06:34:31;10.99;82.80
71649;SHT31;70112;45.624;11.760;2024-02-23T06:37:18;11.00;82.79
71649;SHT31;70112;45.624;11.760;2024-02-23T06:40:01;10.99;82.75
71649;SHT31;70112;45.624;11.760;2024-02-23T06:42:29;11.00;82.80
71649;SHT31;70112;45.624;11.760;2024-02-23T06:44:58;11.02;82.81
71649;SHT31;70112;45.624;11.760;2024-02-23T06:47:45;11.02;82.80
71649;SHT31;70112;45.624;11.760;2024-02-23T06:53:17;11.07;82.78
71649;SHT31;70112;45.624;11.760;2024-02-23T06:55:47;11.09;82.75
71649;SHT31;70112;45.624;11.760;2024-02-23T06:58:15;11.11;82.72
71649;SHT31;70112;45.624;11.760;2024-02-23T07:00:57;11.14;82.68
71649;SHT31;70112;45.624;11.760;2024-02-23T07:03:31;11.17;82.64
71649;SHT31;70112;45.624;11.760;2024-02-23T07:06:30;11.18;82.63
71649;SHT31;70112;45.624;11.760;2024-02-23T07:08:57;11.17;82.62
71649;SHT31;70112;45.624;11.760;2024-02-23T07:33:40;10.76;83.53
71649;SHT31;70112;45.624;11.760;2024-02-23T07:36:16;10.81;83.24
71649;SHT31;70112;45.624;11.760;2024-02-23T07:38:48;10.82;83.20
71649;SHT31;70112;45.624;11.760;2024-02-23T07:41:17;10.84;83.18
71649;SHT31;70112;45.624;11.760;2024-02-23T07:43:43;10.86;83.12
71649;SHT31;70112;45.624;11.760;2024-02-23T07:46:17;10.90;83.17
71649;SHT31;70112;45.624;11.760;2024-02-23T07:48:48;10.93;83.18
71649;SHT31;70112;45.624;11.760;2024-02-23T07:51:16;10.95;83.18
71649;SHT31;70112;45.624;11.760;2024-02-23T07:53:42;10.99;83.19
71649;SHT31;70112;45.624;11.760;2024-02-23T07:56:07;11.01;83.20
71649;SHT31;70112;45.624;11.760;2024-02-23T07:58:33;11.03;83.20
71649;SHT31;70112;45.624;11.760;2024-02-23T08:00:59;11.05;83.20
71649;SHT31;70112;45.624;11.760;2024-02-23T08:03:25;11.05;83.26
71649;SHT31;70112;45.624;11.760;2024-02-23T08:05:51;11.06;83.28
71649;SHT31;70112;45.624;11.760;2024-02-23T08:08:17;11.06;83.30
71649;SHT31;70112;45.624;11.760;2024-02-23T08:10:43;11.06;83.30
71649;SHT31;70112;45.624;11.760;2024-02-23T08:13:12;11.05;83.30
71649;SHT31;70112;45.624;11.760;2024-02-23T08:15:38;11.05;83.32
71649;SHT31;70112;45.624;11.760;2024-02-23T08:18:04;11.05;83.40
71649;SHT31;70112;45.624;11.760;2024-02-23T08:20:29;11.05;83.40
71649;SHT31;70112;45.624;11.760;2024-02-23T08:22:55;11.07;83.43
71649;SHT31;70112;45.624;11.760;2024-02-23T08:25:21;11.07;83.46
71649;SHT31;70112;45.624;11.760;2024-02-23T08:27:49;11.07;83.45
71649;SHT31;70112;45.624;11.760;2024-02-23T08:30:14;11.07;83.50
71649;SHT31;70112;45.624;11.760;2024-02-23T08:32:43;11.08;83.50
71649;SHT31;70112;45.624;11.760;2024-02-23T08:35:08;11.07;83.51
71649;SHT31;70112;45.624;11.760;2024-02-23T08:37:34;11.08;83.57
71649;SHT31;70112;45.624;11.760;2024-02-23T08:39:59;11.08;83.60
71649;SHT31;70112;45.624;11.760;2024-02-23T08:42:26;11.08;83.61
71649;SHT31;70112;45.624;11.760;2024-02-23T08:44:57;11.08;83.62
71649;SHT31;70112;45.624;11.760;2024-02-23T08:47:23;11.09;83.62
71649;SHT31;70112;45.624;11.760;2024-02-23T08:49:49;11.09;83.66
71649;SHT31;70112;45.624;11.760;2024-02-23T08:52:15;11.10;83.70
71649;SHT31;70112;45.624;11.760;2024-02-23T08:54:41;11.12;83.70
71649;SHT31;70112;45.624;11.760;2024-02-23T08:57:06;11.12;83.70
71649;SHT31;70112;45.624;11.760;2024-02-23T08:59:32;11.13;83.70
71649;SHT31;70112;45.624;11.760;2024-02-23T09:01:58;11.12;83.70
71649;SHT31;70112;45.624;11.760;2024-02-23T09:04:23;11.12;83.70
71649;SHT31;70112;45.624;11.760;2024-02-23T09:06:49;11.14;83.71
71649;SHT31;70112;45.624;11.760;2024-02-23T09:09:16;11.13;83.72
71649;SHT31;70112;45.624;11.760;2024-02-23T09:11:42;11.13;83.77
71649;SHT31;70112;45.624;11.760;2024-02-23T09:14:08;11.12;83.80
71649;SHT31;70112;45.624;11.760;2024-02-23T09:16:34;11.13;83.84
71649;SHT31;70112;45.624;11.760;2024-02-23T09:18:59;11.14;83.87
71649;SHT31;70112;45.624;11.760;2024-02-23T09:21:34;11.14;83.90
71649;SHT31;70112;45.624;11.760;2024-02-23T09:24:25;11.16;83.90
71649;SHT31;70112;45.624;11.760;2024-02-23T09:26:51;11.16;83.90
71649;SHT31;70112;45.624;11.760;2024-02-23T09:29:19;11.18;83.90
71649;SHT31;70112;45.624;11.760;2024-02-23T09:31:46;11.18;83.90
71649;SHT31;70112;45.624;11.760;2024-02-23T09:34:14;11.18;83.91
71649;SHT31;70112;45.624;11.760;2024-02-23T09:36:51;11.19;83.96
71649;SHT31;70112;45.624;11.760;2024-02-23T09:39:18;11.19;84.00
71649;SHT31;70112;45.624;11.760;2024-02-23T09:41:45;11.19;84.01
71649;SHT31;70112;45.624;11.760;2024-02-23T09:44:10;11.20;84.04
71649;SHT31;70112;45.624;11.760;2024-02-23T09:46:38;11.21;84.08
71649;SHT31;70112;45.624;11.760;2024-02-23T09:49:05;11.22;84.09
71649;SHT31;70112;45.624;11.760;2024-02-23T09:51:34;11.23;84.09
71649;SHT31;70112;45.624;11.760;2024-02-23T09:54:04;11.25;84.10
71649;SHT31;70112;45.624;11.760;2024-02-23T09:56:32;11.25;84.10
71649;SHT31;70112;45.624;11.760;2024-02-23T09:59:02;11.27;84.12
71649;SHT31;70112;45.624;11.760;2024-02-23T10:01:29;11.28;84.19
71649;SHT31;70112;45.624;11.760;2024-02-23T10:03:58;11.30;84.14
71649;SHT31;70112;45.624;11.760;2024-02-23T10:06:27;11.32;84.09
71649;SHT31;70112;45.624;11.760;2024-02-23T10:08:53;11.31;84.10
71649;SHT31;70112;45.624;11.760;2024-02-23T10:11:22;11.31;84.10
71649;SHT31;70112;45.624;11.760;2024-02-23T10:13:49;11.31;84.10
71649;SHT31;70112;45.624;11.760;2024-02-23T10:16:18;11.30;84.11
71649;SHT31;70112;45.624;11.760;2024-02-23T10:19:06;11.28;84.18
71649;SHT31;70112;45.624;11.760;2024-02-23T10:21:35;11.30;84.20
71649;SHT31;70112;45.624;11.760;2024-02-23T10:26:37;11.31;84.20
71649;SHT31;70112;45.624;11.760;2024-02-23T10:31:42;11.32;84.21
71649;SHT31;70112;45.624;11.760;2024-02-23T10:34:14;11.32;84.20
71649;SHT31;70112;45.624;11.760;2024-02-23T10:36:43;11.34;84.20
71649;SHT31;70112;45.624;11.760;2024-02-23T10:39:10;11.35;84.16
71649;SHT31;70112;45.624;11.760;2024-02-23T10:41:42;11.37;84.17
71649;SHT31;70112;45.624;11.760;2024-02-23T10:44:15;11.38;84.13
71649;SHT31;70112;45.624;11.760;2024-02-23T10:46:42;11.39;84.10
71649;SHT31;70112;45.624;11.760;2024-02-23T10:49:12;11.42;84.10
71649;SHT31;70112;45.624;11.760;2024-02-23T10:51:41;11.43;84.09
71649;SHT31;70112;45.624;11.760;2024-02-23T10:54:08;11.44;84.08
71649;SHT31;70112;45.624;11.760;2024-02-23T10:56:46;11.45;84.03
71649;SHT31;70112;45.624;11.760;2024-02-23T10:59:25;11.47;84.00
71649;SHT31;70112;45.624;11.760;2024-02-23T11:01:52;11.48;83.99
71649;SHT31;70112;45.624;11.760;2024-02-23T11:04:22;11.49;83.94
71649;SHT31;70112;45.624;11.760;2024-02-23T11:06:52;11.50;83.90
71649;SHT31;70112;45.624;11.760;2024-02-23T11:09:23;11.51;83.90
71649;SHT31;70112;45.624;11.760;2024-02-23T11:11:53;11.51;83.97
71649;SHT31;70112;45.624;11.760;2024-02-23T11:14:30;11.51;84.00
71649;SHT31;70112;45.624;11.760;2024-02-23T11:17:05;11.51;83.98
71649;SHT31;70112;45.624;11.760;2024-02-23T11:19:34;11.51;83.97
71649;SHT31;70112;45.624;11.760;2024-02-23T11:22:02;11.52;83.96
71649;SHT31;70112;45.624;11.760;2024-02-23T11:24:29;11.53;83.98
71649;SHT31;70112;45.624;11.760;2024-02-23T11:26:58;11.55;83.99
71649;SHT31;70112;45.624;11.760;2024-02-23T11:29:31;11.56;83.94
71649;SHT31;70112;45.624;11.760;2024-02-23T11:32:01;11.56;83.90
71649;SHT31;70112;45.624;11.760;2024-02-23T11:34:40;11.58;83.89
71649;SHT31;70112;45.624;11.760;2024-02-23T11:37:11;11.60;83.90
71649;SHT31;70112;45.624;11.760;2024-02-23T11:39:37;11.60;83.85
71649;SHT31;70112;45.624;11.760;2024-02-23T11:42:04;11.59;83.87
71649;SHT31;70112;45.624;11.760;2024-02-23T11:44:31;11.60;83.87
71649;SHT31;70112;45.624;11.760;2024-02-23T11:47:07;11.58;83.82
71649;SHT31;70112;45.624;11.760;2024-02-23T11:49:32;11.58;83.78
71649;SHT31;70112;45.624;11.760;2024-02-23T11:51:58;11.61;83.64
71649;SHT31;70112;45.624;11.760;2024-02-23T11:54:45;11.76;83.15
71649;SHT31;70112;45.624;11.760;2024-02-23T11:57:11;11.57;83.59
71649;SHT31;70112;45.624;11.760;2024-02-23T11:59:36;11.53;83.78
71649;SHT31;70112;45.624;11.760;2024-02-23T12:02:02;11.53;83.82
71649;SHT31;70112;45.624;11.760;2024-02-23T12:04:28;11.53;83.84
71649;SHT31;70112;45.624;11.760;2024-02-23T12:06:55;11.53;83.89
71649;SHT31;70112;45.624;11.760;2024-02-23T12:09:23;11.54;83.88
71649;SHT31;70112;45.624;11.760;2024-02-23T12:11:50;11.55;83.86
71649;SHT31;70112;45.624;11.760;2024-02-23T12:14:16;11.57;83.82
71649;SHT31;70112;45.624;11.760;2024-02-23T12:16:43;11.58;83.81
71649;SHT31;70112;45.624;11.760;2024-02-23T12:19:08;11.59;83.87
71649;SHT31;70112;45.624;11.760;2024-02-23T12:21:34;11.60;83.87
71649;SHT31;70112;45.624;11.760;2024-02-23T12:24:03;11.61;83.80
71649;SHT31;70112;45.624;11.760;2024-02-23T12:26:37;11.61;83.80
71649;SHT31;70112;45.624;11.760;2024-02-23T12:29:06;11.61;83.78
71649;SHT31;70112;45.624;11.760;2024-02-23T12:31:44;11.61;83.80
71649;SHT31;70112;45.624;11.760;2024-02-23T12:34:11;11.60;83.81
71649;SHT31;70112;45.624;11.760;2024-02-23T12:36:40;11.59;83.83
71649;SHT31;70112;45.624;11.760;2024-02-23T12:39:05;11.61;83.90
71649;SHT31;70112;45.624;11.760;2024-02-23T12:41:31;11.61;83.90
71649;SHT31;70112;45.624;11.760;2024-02-23T12:43:57;11.62;83.90
71649;SHT31;70112;45.624;11.760;2024-02-23T12:46:24;11.62;83.90
71649;SHT31;70112;45.624;11.760;2024-02-23T12:48:50;11.62;83.84
71649;SHT31;70112;45.624;11.760;2024-02-23T12:51:28;11.60;83.82
71649;SHT31;70112;45.624;11.760;2024-02-23T12:53:56;11.59;83.87
71649;SHT31;70112;45.624;11.760;2024-02-23T12:56:24;11.60;83.89
71649;SHT31;70112;45.624;11.760;2024-02-23T12:58:50;11.59;83.85
71649;SHT31;70112;45.624;11.760;2024-02-23T13:04:01;11.58;83.89
71649;SHT31;70112;45.624;11.760;2024-02-23T13:06:27;11.57;83.89
71649;SHT31;70112;45.624;11.760;2024-02-23T13:08:53;11.56;83.90
71649;SHT31;70112;45.624;11.760;2024-02-23T13:11:18;11.56;83.90
71649;SHT31;70112;45.624;11.760;2024-02-23T13:13:44;11.56;83.90
71649;SHT31;70112;45.624;11.760;2024-02-23T13:16:10;11.55;83.90
71649;SHT31;70112;45.624;11.760;2024-02-23T13:18:47;11.85;83.07
71649;SHT31;70112;45.624;11.760;2024-02-23T13:21:13;12.11;82.25
71649;SHT31;70112;45.624;11.760;2024-02-23T13:23:39;12.17;82.01
71649;SHT31;70112;45.624;11.760;2024-02-23T13:26:07;12.12;82.08
71649;SHT31;70112;45.624;11.760;2024-02-23T13:28:42;11.98;82.48
71649;SHT31;70112;45.624;11.760;2024-02-23T13:31:09;11.93;82.61
71649;SHT31;70112;45.624;11.760;2024-02-23T13:33:40;11.91;82.68
71649;SHT31;70112;45.624;11.760;2024-02-23T13:36:06;11.91;82.78
71649;SHT31;70112;45.624;11.760;2024-02-23T13:38:34;11.91;82.74
71649;SHT31;70112;45.624;11.760;2024-02-23T13:41:03;11.89;82.73
71649;SHT31;70112;45.624;11.760;2024-02-23T13:43:30;11.88;82.76
71649;SHT31;70112;45.624;11.760;2024-02-23T13:45:55;11.89;82.79
71649;SHT31;70112;45.624;11.760;2024-02-23T13:48:24;11.89;82.77
71649;SHT31;70112;45.624;11.760;2024-02-23T13:50:50;11.88;82.77
71649;SHT31;70112;45.624;11.760;2024-02-23T13:53:16;11.89;82.80
71649;SHT31;70112;45.624;11.760;2024-02-23T13:55:41;11.91;82.90
71649;SHT31;70112;45.624;11.760;2024-02-23T13:58:09;11.93;82.83
71649;SHT31;70112;45.624;11.760;2024-02-23T14:00:35;11.93;82.68
71649;SHT31;70112;45.624;11.760;2024-02-23T14:03:01;11.92;82.38
71649;SHT31;70112;45.624;11.760;2024-02-23T14:05:26;11.89;82.07
71649;SHT31;70112;45.624;11.760;2024-02-23T14:07:54;11.79;82.04
71649;SHT31;70112;45.624;11.760;2024-02-23T14:10:20;11.77;82.18
71649;SHT31;70112;45.624;11.760;2024-02-23T14:12:46;11.80;82.06
71649;SHT31;70112;45.624;11.760;2024-02-23T14:15:15;11.82;81.87
71649;SHT31;70112;45.624;11.760;2024-02-23T14:20:46;11.87;81.89
71649;SHT31;70112;45.624;11.760;2024-02-23T14:23:21;11.84;81.97
71649;SHT31;70112;45.624;11.760;2024-02-23T14:25:47;11.84;82.10
71649;SHT31;70112;45.624;11.760;2024-02-23T14:28:13;11.85;82.08
71649;SHT31;70112;45.624;11.760;2024-02-23T14:30:39;11.87;82.06
71649;SHT31;70112;45.624;11.760;2024-02-23T14:33:08;11.90;81.98
71649;SHT31;70112;45.624;11.760;2024-02-23T14:35:33;11.91;81.91
71649;SHT31;70112;45.624;11.760;2024-02-23T14:37:59;11.93;81.90
71649;SHT31;70112;45.624;11.760;2024-02-23T14:40:27;11.93;81.90
71649;SHT31;70112;45.624;11.760;2024-02-23T14:42:53;11.94;81.91
71649;SHT31;70112;45.624;11.760;2024-02-23T14:45:30;11.94;81.78
71649;SHT31;70112;45.624;11.760;2024-02-23T14:48:07;11.95;81.61
71649;SHT31;70112;45.624;11.760;2024-02-23T14:50:33;11.95;81.54
71649;SHT31;70112;45.624;11.760;2024-02-23T14:53:02;11.94;81.48
71649;SHT31;70112;45.624;11.760;2024-02-23T14:55:27;11.93;81.33
71649;SHT31;70112;45.624;11.760;2024-02-23T14:57:54;11.93;81.20
71649;SHT31;70112;45.624;11.760;2024-02-23T15:00:20;11.91;81.04
71649;SHT31;70112;45.624;11.760;2024-02-23T15:03:09;11.90;80.87
71649;SHT31;70112;45.624;11.760;2024-02-23T15:05:34;11.89;80.58
71649;SHT31;70112;45.624;11.760;2024-02-23T15:08:00;11.87;80.50
71649;SHT31;70112;45.624;11.760;2024-02-23T15:10:25;11.85;80.47
71649;SHT31;70112;45.624;11.760;2024-02-23T15:12:52;11.83;80.38
71649;SHT31;70112;45.624;11.760;2024-02-23T15:15:19;11.82;80.27
71649;SHT31;70112;45.624;11.760;2024-02-23T15:17:45;11.79;80.30
71649;SHT31;70112;45.624;11.760;2024-02-23T15:20:14;11.76;80.30
71649;SHT31;70112;45.624;11.760;2024-02-23T15:22:40;11.75;80.25
71649;SHT31;70112;45.624;11.760;2024-02-23T15:25:07;11.76;80.20
71649;SHT31;70112;45.624;11.760;2024-02-23T15:27:34;11.76;80.16
71649;SHT31;70112;45.624;11.760;2024-02-23T15:30:15;11.74;80.14
71649;SHT31;70112;45.624;11.760;2024-02-23T15:32:56;11.73;80.18
71649;SHT31;70112;45.624;11.760;2024-02-23T15:35:41;11.72;80.03
71649;SHT31;70112;45.624;11.760;2024-02-23T15:38:07;11.71;79.86
71649;SHT31;70112;45.624;11.760;2024-02-23T15:40:33;11.70;79.82
71649;SHT31;70112;45.624;11.760;2024-02-23T15:43:06;11.68;79.94
71649;SHT31;70112;45.624;11.760;2024-02-23T15:45:37;11.64;79.95
71649;SHT31;70112;45.624;11.760;2024-02-23T15:48:03;11.59;80.01
71649;SHT31;70112;45.624;11.760;2024-02-23T15:50:29;11.58;80.09
71649;SHT31;70112;45.624;11.760;2024-02-23T15:52:56;11.57;80.03
71649;SHT31;70112;45.624;11.760;2024-02-23T15:55:34;11.56;79.90
71649;SHT31;70112;45.624;11.760;2024-02-23T15:58:13;11.56;80.00
71649;SHT31;70112;45.624;11.760;2024-02-23T16:00:42;11.56;80.08
71649;SHT31;70112;45.624;11.760;2024-02-23T16:03:08;11.55;80.12
71649;SHT31;70112;45.624;11.760;2024-02-23T16:05:55;11.54;80.12
71649;SHT31;70112;45.624;11.760;2024-02-23T16:08:37;11.54;80.15
71649;SHT31;70112;45.624;11.760;2024-02-23T16:11:11;11.53;80.20
71649;SHT31;70112;45.624;11.760;2024-02-23T16:13:40;11.52;80.21
71649;SHT31;70112;45.624;11.760;2024-02-23T16:16:06;11.52;80.20
71649;SHT31;70112;45.624;11.760;2024-02-23T16:21:10;11.48;80.19
71649;SHT31;70112;45.624;11.760;2024-02-23T16:23:43;11.45;80.20
71649;SHT31;70112;45.624;11.760;2024-02-23T16:26:14;11.44;80.19
71649;SHT31;70112;45.624;11.760;2024-02-23T16:28:40;11.43;80.17
71649;SHT31;70112;45.624;11.760;2024-02-23T16:31:06;11.43;80.11
71649;SHT31;70112;45.624;11.760;2024-02-23T16:33:32;11.42;80.10
71649;SHT31;70112;45.624;11.760;2024-02-23T16:35:57;11.42;80.11
71649;SHT31;70112;45.624;11.760;2024-02-23T16:38:31;11.42;80.07